Benoit, Wisconsin
Current Conditions -  °F | °C
As of 11:53 PM on Saturday 25 Oct 2014 (Local Time) from KASX Reporting Station
Clear Clear  
Wind Chill: 38°   Ceiling: Unl
Heat Index: 41°   Visibility: 10mi
Dew Point: 28°   Wind: 5mph
Humidity: 60%   Direction: 240°WSW
Pressure: 29.97"   Gusts: NA
Location:  46.5°N, 91.08°W
Report Text: KASX 260453Z AUTO 24004KT 10SM CLR 05/M02 A2997 RMK AO2 SLP154 T00501022
Loading
Personal Weather Stations






























Interactive Weather Map
Tropical Storm Tracking
New forecast layout! Learn more

10-Day Weather Forecast

Advertisements
Track Severe Weather on mobile